Time;durP1;ratioP1;P1;durP2;ratioP2;P2;SDS_P1;SDS_P2;PMS_P1;PMS_P2;Temp;Humidity;BMP_temperature;BMP_pressure;BME280_temperature;BME280_humidity;BME280_pressure;Samples;Min_cycle;Max_cycle;Signal;HPM_P1;HPM_P2
2021/10/24 00:01:36;;;;;;;0.60;0.60;;;;;;;7.41;68.39;101594.05;111788;1192;94073;-75
2021/10/24 00:04:04;;;;;;;0.60;0.60;;;;;;;7.52;67.83;101597.27;111579;1193;137741;-76
2021/10/24 00:06:32;;;;;;;0.60;0.60;;;;;;;7.57;67.62;101597.48;111739;1192;108282;-75
2021/10/24 00:09:00;;;;;;;0.70;0.70;;;;;;;7.59;67.55;101595.90;111435;1192;138361;-76
2021/10/24 00:11:28;;;;;;;0.70;0.70;;;;;;;7.53;67.70;101602.41;111609;1193;94018;-75
2021/10/24 00:13:55;;;;;;;0.60;0.60;;;;;;;7.60;67.66;101608.98;111610;1193;93896;-76
2021/10/24 00:16:23;;;;;;;0.70;0.70;;;;;;;7.58;67.55;101607.92;111408;1193;137160;-77
2021/10/24 00:18:51;;;;;;;0.60;0.60;;;;;;;7.54;67.70;101604.89;111590;1192;107275;-75
2021/10/24 00:21:19;;;;;;;0.60;0.60;;;;;;;7.49;67.60;101609.99;111562;1192;137808;-74
2021/10/24 00:23:47;;;;;;;0.50;0.50;;;;;;;7.45;67.71;101605.73;111503;1193;94786;-76
2021/10/24 00:26:15;;;;;;;0.60;0.60;;;;;;;7.43;68.12;101603.23;111490;1201;108514;-76
2021/10/24 00:28:43;;;;;;;0.70;0.70;;;;;;;7.48;68.03;101602.73;111602;1192;137255;-76
2021/10/24 00:31:10;;;;;;;0.60;0.60;;;;;;;7.52;67.46;101606.11;111560;1193;94164;-74
2021/10/24 00:33:39;;;;;;;0.60;0.60;;;;;;;7.46;67.52;101613.86;111491;1193;138806;-76
2021/10/24 00:36:21;;;;;;;0.60;0.60;;;;;;;7.41;67.82;101631.67;111631;1193;108286;-75
2021/10/24 00:38:49;;;;;;;0.60;0.60;;;;;;;7.30;67.93;101637.08;111855;1193;108430;-75
2021/10/24 00:41:17;;;;;;;0.60;0.60;;;;;;;7.25;68.26;101636.14;111478;1192;138577;-74
2021/10/24 00:43:45;;;;;;;0.60;0.60;;;;;;;7.22;68.32;101633.30;111897;1193;94082;-77
2021/10/24 00:46:13;;;;;;;0.60;0.60;;;;;;;7.17;68.39;101635.20;111656;1192;138188;-77
2021/10/24 00:48:59;;;;;;;0.70;0.70;;;;;;;7.21;68.63;101636.65;111517;1192;111378;-76
2021/10/24 00:51:27;;;;;;;0.70;0.70;;;;;;;7.25;68.51;101635.98;111508;1193;138954;-76
2021/10/24 00:53:55;;;;;;;0.60;0.60;;;;;;;7.30;68.46;101634.95;111583;1193;94456;-74
2021/10/24 00:56:23;;;;;;;0.60;0.60;;;;;;;7.33;68.06;101638.17;111618;1193;106618;-77
2021/10/24 00:58:51;;;;;;;0.60;0.60;;;;;;;7.32;68.14;101639.73;111734;1193;137696;-76
2021/10/24 01:01:19;;;;;;;0.60;0.60;;;;;;;7.26;68.05;101642.52;112056;1192;94792;-74
2021/10/24 01:03:47;;;;;;;0.60;0.60;;;;;;;7.22;68.00;101649.02;111906;1192;137186;-76
2021/10/24 01:06:15;;;;;;;0.60;0.60;;;;;;;7.19;68.10;101648.48;111713;1193;106465;-73
2021/10/24 01:08:43;;;;;;;0.70;0.70;;;;;;;7.29;67.80;101650.13;111978;1192;107213;-75
2021/10/24 01:11:10;;;;;;;0.60;0.60;;;;;;;7.22;67.95;101651.15;111899;1192;138507;-75
2021/10/24 01:13:38;;;;;;;0.70;0.70;;;;;;;7.22;67.98;101651.15;112027;1192;94679;-75
2021/10/24 01:16:11;;;;;;;0.60;0.60;;;;;;;7.20;67.85;101645.29;111865;1192;139241;-77
2021/10/24 01:18:39;;;;;;;0.60;0.60;;;;;;;7.13;67.94;101646.66;111973;1192;107335;-75
2021/10/24 01:21:07;;;;;;;0.60;0.60;;;;;;;7.15;68.12;101645.09;111764;1193;137249;-75
2021/10/24 01:23:36;;;;;;;0.70;0.70;;;;;;;7.17;67.84;101646.52;111601;1193;94016;-76
2021/10/24 01:26:05;;;;;;;0.70;0.70;;;;;;;7.20;67.86;101649.52;111711;1193;107520;-74
2021/10/24 01:28:34;;;;;;;0.70;0.70;;;;;;;7.26;67.72;101645.34;111839;1192;137752;-75
2021/10/24 01:31:02;;;;;;;0.60;0.60;;;;;;;7.24;67.72;101656.80;111680;1193;94165;-75
2021/10/24 01:33:31;;;;;;;0.60;0.60;;;;;;;7.21;67.74;101662.27;111593;1193;137429;-76
2021/10/24 01:36:06;;;;;;;0.60;0.60;;;;;;;7.19;67.85;101654.48;111678;1193;108704;-74
2021/10/24 01:38:37;;;;;;;0.60;0.60;;;;;;;7.24;67.88;101656.98;111989;1192;108130;-75
2021/10/24 01:41:09;;;;;;;0.60;0.60;;;;;;;7.25;67.69;101658.05;111476;1196;138344;-75
2021/10/24 01:43:37;;;;;;;0.60;0.60;;;;;;;7.30;67.50;101660.92;111648;1193;94901;-75
2021/10/24 01:46:05;;;;;;;0.60;0.60;;;;;;;7.33;67.18;101665.73;111775;1192;137781;-75
2021/10/24 01:48:33;;;;;;;0.60;0.60;;;;;;;7.32;67.22;101659.88;111962;1193;107663;-74
2021/10/24 01:51:03;;;;;;;0.60;0.60;;;;;;;7.33;67.17;101657.23;111811;1192;138854;-76
2021/10/24 01:53:33;;;;;;;0.60;0.60;;;;;;;7.33;66.92;101655.64;111872;1192;94896;-77
2021/10/24 01:56:02;;;;;;;0.70;0.70;;;;;;;7.26;67.34;101665.48;111840;1193;107499;-75
2021/10/24 01:58:31;;;;;;;0.60;0.60;;;;;;;7.30;67.15;101667.98;111614;1192;137666;-75
2021/10/24 02:00:59;;;;;;;0.60;0.60;;;;;;;7.28;67.15;101668.85;111683;1193;93955;-76
2021/10/24 02:03:41;;;;;;;0.60;0.60;;;;;;;7.26;67.38;101667.77;111572;1193;137816;-75
2021/10/24 02:06:27;;;;;;;0.60;0.60;;;;;;;7.30;67.22;101667.27;111843;1193;108865;-75
2021/10/24 02:08:55;;;;;;;0.60;0.60;;;;;;;7.31;66.76;101670.12;111639;1193;108490;-75
2021/10/24 02:11:23;;;;;;;0.60;0.60;;;;;;;7.25;66.97;101680.14;112013;1192;138400;-75
2021/10/24 02:13:52;;;;;;;0.70;0.70;;;;;;;7.23;67.10;101680.99;111711;1192;94421;-75
2021/10/24 02:16:20;;;;;;;0.70;0.70;;;;;;;7.14;67.18;101685.52;111850;1192;138085;-74
2021/10/24 02:18:49;;;;;;;0.60;0.60;;;;;;;7.14;67.43;101690.66;111985;1192;108885;-76
2021/10/24 02:21:17;;;;;;;0.80;0.80;;;;;;;7.19;67.16;101694.93;111467;1193;139880;-76
2021/10/24 02:23:45;;;;;;;0.70;0.70;;;;;;;7.19;67.26;101699.88;111787;1193;94059;-76
2021/10/24 02:26:14;;;;;;;0.70;0.70;;;;;;;7.15;67.27;101698.42;111625;1194;107623;-76
2021/10/24 02:28:42;;;;;;;0.60;0.60;;;;;;;7.15;67.66;101693.30;111603;1192;139359;-75
2021/10/24 02:31:10;;;;;;;0.60;0.60;;;;;;;7.08;67.58;101696.95;111542;1193;94072;-76
2021/10/24 02:33:51;;;;;;;0.60;0.60;;;;;;;7.01;67.83;101697.58;111511;1193;137592;-76
2021/10/24 02:36:37;;;;;;;0.70;0.70;;;;;;;6.97;67.96;101691.02;112002;1192;107634;-75
2021/10/24 02:39:05;;;;;;;0.70;0.70;;;;;;;7.01;68.24;101693.17;111695;1192;137950;-75
2021/10/24 02:41:38;;;;;;;0.80;0.80;;;;;;;7.10;68.08;101693.96;111631;1193;94165;-76
2021/10/24 02:44:06;;;;;;;0.70;0.70;;;;;;;7.12;67.79;101702.11;111666;1192;93976;-77
2021/10/24 02:46:41;;;;;;;0.80;0.80;;;;;;;7.01;67.77;101706.60;111783;1192;138146;-75
2021/10/24 02:49:10;;;;;;;0.70;0.70;;;;;;;7.01;67.83;101703.95;111822;1192;107091;-76
2021/10/24 02:51:48;;;;;;;0.70;0.70;;;;;;;7.05;67.83;101713.52;111752;1192;137720;-74
2021/10/24 02:54:17;;;;;;;0.60;0.60;;;;;;;6.99;67.97;101716.64;111686;1193;94475;-77
2021/10/24 02:56:45;;;;;;;0.80;0.80;;;;;;;6.89;67.99;101724.66;111622;1194;107458;-76
2021/10/24 02:59:16;;;;;;;0.80;0.80;;;;;;;6.78;68.27;101727.73;111610;1193;138959;-75
2021/10/24 03:01:44;;;;;;;0.70;0.70;;;;;;;6.80;68.30;101723.35;111984;1193;94085;-75
2021/10/24 03:04:12;;;;;;;0.60;0.60;;;;;;;6.73;68.37;101735.25;111456;1194;137712;-75
2021/10/24 03:06:45;;;;;;;0.70;0.70;;;;;;;6.78;68.63;101741.31;111762;1193;108481;-76
2021/10/24 03:09:13;;;;;;;0.70;0.70;;;;;;;6.77;68.46;101737.59;111634;1192;137937;-75
2021/10/24 03:11:41;;;;;;;0.70;0.70;;;;;;;6.65;68.77;101731.45;111736;1193;94056;-76
2021/10/24 03:14:09;;;;;;;0.70;0.70;;;;;;;6.66;68.93;101731.30;111929;1193;94119;-74
2021/10/24 03:16:37;;;;;;;0.70;0.70;;;;;;;6.72;68.53;101730.14;111591;1193;137683;-76
2021/10/24 03:19:05;;;;;;;0.70;0.70;;;;;;;6.68;68.65;101736.79;111557;1194;108135;-76
2021/10/24 03:21:33;;;;;;;0.70;0.70;;;;;;;6.74;68.94;101744.99;111366;1193;139126;-76
2021/10/24 03:24:06;;;;;;;0.60;0.60;;;;;;;6.91;68.43;101751.17;111813;1192;93960;-76
2021/10/24 03:26:34;;;;;;;0.60;0.60;;;;;;;7.01;68.42;101751.80;111659;1193;106741;-75
2021/10/24 03:29:02;;;;;;;0.60;0.60;;;;;;;7.08;68.08;101755.94;111495;1194;137404;-76
2021/10/24 03:31:30;;;;;;;0.70;0.70;;;;;;;7.06;67.94;101753.62;111565;1193;94107;-76
2021/10/24 03:33:58;;;;;;;0.60;0.60;;;;;;;7.02;68.12;101751.46;111578;1192;137714;-75
2021/10/24 03:36:27;;;;;;;0.70;0.70;;;;;;;7.02;67.95;101765.05;111767;1192;108632;-76
2021/10/24 03:38:54;;;;;;;0.70;0.70;;;;;;;6.99;68.16;101761.67;111381;1195;108082;-75
2021/10/24 03:41:22;;;;;;;0.70;0.70;;;;;;;6.98;68.40;101770.66;111471;1193;137644;-73
2021/10/24 03:43:50;;;;;;;0.60;0.60;;;;;;;7.02;68.26;101771.77;111498;1193;94536;-75
2021/10/24 03:46:18;;;;;;;0.70;0.70;;;;;;;7.01;68.27;101772.46;111434;1193;138454;-76
2021/10/24 03:48:46;;;;;;;0.80;0.80;;;;;;;7.01;68.12;101774.42;111659;1193;107090;-75
2021/10/24 03:51:14;;;;;;;0.70;0.70;;;;;;;6.97;67.98;101778.25;111432;1192;137559;-74
2021/10/24 03:53:42;;;;;;;0.60;0.60;;;;;;;6.91;67.97;101775.54;111540;1195;95037;-76
2021/10/24 03:56:09;;;;;;;0.60;0.60;;;;;;;6.88;67.91;101782.55;111474;1194;108479;-77
2021/10/24 03:58:41;;;;;;;0.60;0.60;;;;;;;6.89;68.34;101788.75;111546;1194;137122;-75
2021/10/24 04:01:09;;;;;;;0.60;0.60;;;;;;;6.88;68.24;101791.23;111801;1193;94051;-75
2021/10/24 04:03:37;;;;;;;0.60;0.60;;;;;;;6.88;68.14;101784.67;111413;1193;138083;-75
2021/10/24 04:06:05;;;;;;;0.60;0.60;;;;;;;6.99;68.28;101784.45;111606;1193;108765;-76
2021/10/24 04:08:34;;;;;;;0.70;0.70;;;;;;;6.99;68.09;101781.79;111641;1193;108177;-75
2021/10/24 04:11:01;;;;;;;0.70;0.70;;;;;;;7.00;67.96;101786.05;111712;1192;137366;-77
2021/10/24 04:13:30;;;;;;;0.60;0.60;;;;;;;7.05;67.79;101790.89;111609;1193;94062;-75
2021/10/24 04:15:58;;;;;;;0.70;0.70;;;;;;;7.09;67.74;101789.67;111495;1193;138032;-74
2021/10/24 04:18:44;;;;;;;0.70;0.70;;;;;;;7.16;67.62;101791.34;111645;1193;108135;-76
2021/10/24 04:21:12;;;;;;;0.70;0.70;;;;;;;7.17;67.57;101787.11;111545;1192;137553;-74
2021/10/24 04:23:40;;;;;;;0.70;0.70;;;;;;;7.16;67.47;101782.68;111573;1192;94996;-75
2021/10/24 04:26:09;;;;;;;0.70;0.70;;;;;;;7.14;67.68;101774.37;111708;1192;108421;-75
2021/10/24 04:28:37;;;;;;;0.70;0.70;;;;;;;7.12;67.70;101776.29;111606;1192;137699;-75
2021/10/24 04:31:05;;;;;;;0.70;0.70;;;;;;;7.16;67.67;101776.33;111586;1193;94053;-75
2021/10/24 04:33:33;;;;;;;0.70;0.70;;;;;;;7.18;67.43;101777.39;111530;1193;137572;-76
2021/10/24 04:36:03;;;;;;;0.70;0.70;;;;;;;7.19;67.46;101785.02;111634;1193;107521;-75
2021/10/24 04:38:32;;;;;;;0.80;0.80;;;;;;;7.15;67.57;101786.55;111506;1192;108326;-74
2021/10/24 04:41:00;;;;;;;0.70;0.70;;;;;;;7.14;67.84;101792.73;111547;1192;139483;-74
2021/10/24 04:43:27;;;;;;;0.60;0.60;;;;;;;7.09;67.98;101791.63;111701;1193;95892;-73
2021/10/24 04:45:55;;;;;;;0.60;0.60;;;;;;;7.14;68.06;101791.50;111579;1193;138319;-75
2021/10/24 04:48:24;;;;;;;0.70;0.70;;;;;;;6.99;68.35;101791.52;111669;1192;107208;-76
2021/10/24 04:50:52;;;;;;;0.80;0.80;;;;;;;6.99;68.45;101796.80;111441;1193;94078;-75
2021/10/24 04:53:20;;;;;;;0.60;0.60;;;;;;;6.96;68.44;101799.60;111782;1193;137788;-75
2021/10/24 04:55:51;;;;;;;0.60;0.60;;;;;;;6.90;68.85;101806.95;111825;1192;107557;-76
2021/10/24 04:58:19;;;;;;;0.80;0.80;;;;;;;6.99;68.85;101808.29;111484;1192;139544;-76
2021/10/24 05:00:47;;;;;;;0.70;0.70;;;;;;;7.09;68.47;101810.34;111682;1193;94622;-74
2021/10/24 05:03:15;;;;;;;0.60;0.60;;;;;;;7.04;68.21;101816.46;111799;1192;137682;-74
2021/10/24 05:05:46;;;;;;;0.70;0.70;;;;;;;6.94;68.70;101815.30;111700;1193;108138;-77
2021/10/24 05:08:14;;;;;;;0.70;0.70;;;;;;;6.85;68.82;101819.61;111645;1193;108691;-75
2021/10/24 05:10:43;;;;;;;0.70;0.70;;;;;;;6.92;68.78;101822.15;111460;1193;137926;-75
2021/10/24 05:13:10;;;;;;;0.70;0.70;;;;;;;6.91;68.88;101825.15;111707;1192;94794;-74
2021/10/24 05:15:38;;;;;;;0.70;0.70;;;;;;;6.95;69.09;101831.56;111427;1193;137301;-75
2021/10/24 05:18:08;;;;;;;0.70;0.70;;;;;;;7.01;68.82;101827.55;111519;1192;108031;-75
2021/10/24 05:20:37;;;;;;;0.70;0.70;;;;;;;7.09;68.87;101827.13;111751;1192;94903;-75
2021/10/24 05:23:05;;;;;;;0.60;0.60;;;;;;;7.09;68.56;101829.60;111541;1192;137402;-74
2021/10/24 05:25:54;;;;;;;0.70;0.70;;;;;;;7.02;68.88;101827.94;111648;1193;106559;-76
2021/10/24 05:28:22;;;;;;;0.70;0.70;;;;;;;7.13;68.90;101827.70;111503;1192;138033;-76
2021/10/24 05:30:50;;;;;;;0.70;0.70;;;;;;;7.23;68.47;101834.52;111559;1192;94723;-76
2021/10/24 05:33:18;;;;;;;0.70;0.70;;;;;;;7.29;68.37;101836.52;111718;1192;139054;-76
2021/10/24 05:36:15;;;;;;;0.60;0.60;;;;;;;7.27;68.25;101838.25;111674;1193;106520;-76
2021/10/24 05:38:43;;;;;;;0.70;0.70;;;;;;;7.18;68.25;101842.94;111672;1193;108068;-74
2021/10/24 05:41:14;;;;;;;0.60;0.60;;;;;;;7.18;68.50;101841.88;111857;1192;138019;-75
2021/10/24 05:43:43;;;;;;;0.60;0.60;;;;;;;7.16;68.41;101844.87;111889;1192;94424;-76
2021/10/24 05:46:12;;;;;;;0.70;0.70;;;;;;;7.04;68.42;101846.30;111363;1195;138333;-76
2021/10/24 05:48:40;;;;;;;0.70;0.70;;;;;;;7.04;68.77;101844.90;111578;1192;107688;-76
2021/10/24 05:51:18;;;;;;;0.60;0.60;;;;;;;7.05;68.61;101848.63;111757;1192;140644;-75
2021/10/24 05:53:47;;;;;;;0.60;0.60;;;;;;;6.99;68.82;101851.55;111921;1192;94197;-76
2021/10/24 05:56:22;;;;;;;0.70;0.70;;;;;;;6.83;69.09;101851.17;111493;1192;108028;-76
2021/10/24 05:58:50;;;;;;;0.70;0.70;;;;;;;6.83;69.11;101848.53;111564;1192;138068;-77
2021/10/24 06:01:37;;;;;;;0.70;0.70;;;;;;;6.84;68.98;101850.83;111590;1193;94498;-76
2021/10/24 06:04:14;;;;;;;0.70;0.70;;;;;;;6.86;69.02;101862.86;111685;1192;137724;-74
2021/10/24 06:07:12;;;;;;;0.80;0.80;;;;;;;7.00;69.43;101867.98;111650;1193;108540;-77
2021/10/24 06:12:16;;;;;;;0.60;0.60;;;;;;;7.15;68.95;101877.35;111766;1192;94073;-76
2021/10/24 06:14:44;;;;;;;0.70;0.70;;;;;;;7.30;68.86;101883.35;111595;1193;94041;-75
2021/10/24 06:17:13;;;;;;;0.70;0.70;;;;;;;7.31;68.38;101885.83;111662;1192;137639;-75
2021/10/24 06:19:44;;;;;;;0.60;0.60;;;;;;;7.27;68.64;101887.89;111647;1193;108496;-76
2021/10/24 06:22:12;;;;;;;0.60;0.60;;;;;;;7.21;68.37;101889.25;111466;1193;138256;-75
2021/10/24 06:24:40;;;;;;;0.70;0.70;;;;;;;7.15;68.47;101897.66;111647;1193;94688;-75
2021/10/24 06:27:08;;;;;;;0.70;0.70;;;;;;;7.00;68.79;101900.29;111377;1193;137724;-76
2021/10/24 06:29:35;;;;;;;0.60;0.60;;;;;;;6.95;69.23;101902.70;111498;1193;107073;-74
2021/10/24 06:32:05;;;;;;;0.60;0.60;;;;;;;7.06;69.19;101911.31;111643;1193;94360;-74
2021/10/24 06:34:51;;;;;;;0.60;0.60;;;;;;;7.05;69.16;101919.09;111679;1192;137630;-78
2021/10/24 06:37:28;;;;;;;0.60;0.60;;;;;;;7.05;69.11;101916.78;111511;1195;108582;-76
2021/10/24 06:40:00;;;;;;;0.70;0.70;;;;;;;7.12;69.00;101922.35;111465;1193;139956;-76
2021/10/24 06:42:28;;;;;;;0.60;0.60;;;;;;;7.17;68.71;101926.48;111493;1194;94022;-75
2021/10/24 06:45:17;;;;;;;0.70;0.70;;;;;;;7.17;68.64;101928.23;111202;1193;139337;-76
2021/10/24 06:48:04;;;;;;;0.70;0.70;;;;;;;7.18;68.56;101927.71;111791;1192;107637;-76
2021/10/24 06:50:50;;;;;;;0.70;0.70;;;;;;;7.18;68.71;101931.25;111746;1192;108411;-76
2021/10/24 06:53:37;;;;;;;0.60;0.60;;;;;;;7.19;68.43;101934.47;111699;1192;137944;-76
2021/10/24 06:56:24;;;;;;;0.70;0.70;;;;;;;7.24;68.59;101941.73;111613;1192;95049;-75
2021/10/24 06:59:10;;;;;;;0.70;0.70;;;;;;;7.25;68.20;101944.40;111754;1192;138219;-76
2021/10/24 07:01:57;;;;;;;0.60;0.60;;;;;;;7.26;68.29;101945.13;111754;1193;107092;-75
2021/10/24 07:05:04;;;;;;;0.70;0.70;;;;;;;7.15;68.29;101942.86;111643;1192;138884;-75
2021/10/24 07:07:36;;;;;;;0.70;0.70;;;;;;;7.09;68.70;101949.34;111631;1193;95223;-77
2021/10/24 07:10:07;;;;;;;0.70;0.70;;;;;;;7.22;69.04;101942.09;111574;1193;139208;-77
2021/10/24 07:12:36;;;;;;;0.60;0.60;;;;;;;7.44;68.72;101944.28;111788;1192;108883;-77
2021/10/24 07:15:05;;;;;;;0.70;0.70;;;;;;;7.51;68.34;101950.02;111763;1193;94158;-74
2021/10/24 07:17:35;;;;;;;0.60;0.60;;;;;;;7.46;68.32;101949.61;111579;1193;138027;-75
2021/10/24 07:20:06;;;;;;;0.60;0.60;;;;;;;7.50;68.28;101951.42;111780;1192;107503;-75
2021/10/24 07:22:44;;;;;;;0.60;0.60;;;;;;;7.57;68.28;101957.51;111712;1193;139098;-74
2021/10/24 07:25:35;;;;;;;0.60;0.60;;;;;;;7.58;67.62;101969.91;111603;1192;94515;-75
2021/10/24 07:28:03;;;;;;;0.60;0.60;;;;;;;7.47;67.56;101975.77;111546;1193;137395;-75
2021/10/24 07:30:31;;;;;;;0.60;0.60;;;;;;;7.48;68.06;101978.79;111702;1192;108411;-76
2021/10/24 07:32:59;;;;;;;0.60;0.60;;;;;;;7.60;67.93;101972.03;111708;1193;107159;-76
2021/10/24 07:35:30;;;;;;;0.60;0.60;;;;;;;7.70;67.61;101981.52;111482;1193;137571;-75
2021/10/24 07:38:02;;;;;;;0.70;0.70;;;;;;;7.75;67.50;101985.28;111533;1193;94490;-74
2021/10/24 07:40:35;;;;;;;0.70;0.70;;;;;;;7.77;67.33;101981.41;111534;1193;138421;-76
2021/10/24 07:43:06;;;;;;;0.70;0.70;;;;;;;7.83;67.22;101985.73;111557;1193;107072;-75
2021/10/24 07:45:34;;;;;;;0.60;0.60;;;;;;;7.87;67.12;101990.72;111820;1192;137589;-75
2021/10/24 07:48:04;;;;;;;0.60;0.60;;;;;;;7.89;67.15;101997.11;111586;1194;94079;-76
2021/10/24 07:50:33;;;;;;;0.60;0.60;;;;;;;7.81;66.79;101997.73;111813;1192;108100;-74
2021/10/24 07:53:02;;;;;;;0.60;0.60;;;;;;;7.77;67.18;101994.34;111692;1193;138811;-76
2021/10/24 07:55:43;;;;;;;0.70;0.70;;;;;;;7.87;67.02;101998.86;111781;1193;94343;-75
2021/10/24 07:58:17;;;;;;;0.70;0.70;;;;;;;7.80;66.93;102000.89;111485;1193;139271;-76
2021/10/24 08:00:45;;;;;;;0.60;0.60;;;;;;;7.70;67.05;102005.21;111757;1192;108691;-75
2021/10/24 08:03:14;;;;;;;0.60;0.60;;;;;;;7.63;67.44;102005.13;111652;1193;139022;-75
2021/10/24 08:05:42;;;;;;;0.60;0.60;;;;;;;7.57;67.51;102008.05;111776;1193;94064;-77
2021/10/24 08:08:09;;;;;;;0.60;0.60;;;;;;;7.55;67.89;102012.11;111818;1193;93913;-75
2021/10/24 08:10:37;;;;;;;0.60;0.60;;;;;;;7.71;67.63;102010.34;111545;1193;137920;-75
2021/10/24 08:13:05;;;;;;;0.50;0.50;;;;;;;7.78;67.18;102006.52;111604;1195;108172;-77
2021/10/24 08:15:33;;;;;;;0.60;0.60;;;;;;;7.67;67.07;102010.48;111488;1194;138650;-76
2021/10/24 08:18:01;;;;;;;0.60;0.60;;;;;;;7.59;67.15;102007.39;111599;1193;94121;-76
2021/10/24 08:20:56;;;;;;;0.60;0.60;;;;;;;7.62;67.53;102010.42;111408;1193;107727;-75
2021/10/24 08:23:25;;;;;;;0.60;0.60;;;;;;;7.59;67.24;102006.67;111707;1192;139229;-75
2021/10/24 08:25:54;;;;;;;0.60;0.60;;;;;;;7.54;67.45;102007.67;111928;1192;94490;-76
2021/10/24 08:28:22;;;;;;;0.60;0.60;;;;;;;7.61;67.40;102007.41;111579;1193;138841;-75
2021/10/24 08:31:02;;;;;;;0.60;0.60;;;;;;;7.50;66.73;102012.05;111712;1193;108680;-76
2021/10/24 08:33:35;;;;;;;0.60;0.60;;;;;;;7.28;67.29;102018.66;111658;1192;137883;-75
2021/10/24 08:36:04;;;;;;;0.70;0.70;;;;;;;7.24;67.78;102016.64;111858;1192;94847;-75
2021/10/24 08:38:32;;;;;;;0.70;0.70;;;;;;;7.42;68.13;102011.59;111726;1193;94148;-75
2021/10/24 08:41:02;;;;;;;0.60;0.60;;;;;;;7.71;67.67;102008.92;111690;1193;137843;-76
2021/10/24 08:43:32;;;;;;;0.50;0.50;;;;;;;7.91;66.88;102008.80;111594;1193;106980;-77
2021/10/24 08:46:01;;;;;;;0.60;0.60;;;;;;;7.88;66.18;102010.54;111498;1192;138483;-76
2021/10/24 08:48:31;;;;;;;0.60;0.60;;;;;;;7.83;66.45;102012.45;111958;1192;93983;-76
2021/10/24 08:50:59;;;;;;;0.60;0.60;;;;;;;7.76;66.09;102014.65;111817;1192;108496;-75
2021/10/24 08:53:28;;;;;;;0.50;0.50;;;;;;;7.71;66.24;102024.32;111755;1192;138629;-76
2021/10/24 08:55:57;;;;;;;0.60;0.60;;;;;;;7.80;66.59;102023.36;111842;1192;93955;-77
2021/10/24 08:58:25;;;;;;;0.60;0.60;;;;;;;7.93;66.52;102023.16;111665;1192;137410;-75
2021/10/24 09:00:53;;;;;;;0.60;0.60;;;;;;;8.02;66.09;102024.85;111840;1194;107484;-76
2021/10/24 09:03:21;;;;;;;0.60;0.60;;;;;;;7.99;65.99;102024.98;111346;1193;137943;-75
2021/10/24 09:05:50;;;;;;;0.60;0.60;;;;;;;8.05;65.68;102026.11;111755;1192;94083;-75
2021/10/24 09:08:20;;;;;;;0.50;0.50;;;;;;;8.11;65.01;102027.05;111628;1193;94405;-75
2021/10/24 09:10:48;;;;;;;0.50;0.50;;;;;;;8.15;65.29;102032.57;111633;1192;138662;-75
2021/10/24 09:13:17;;;;;;;0.50;0.50;;;;;;;8.23;65.35;102030.53;111586;1194;108484;-75
2021/10/24 09:16:12;;;;;;;0.60;0.60;;;;;;;8.22;64.91;102032.99;111525;1193;138762;-78
2021/10/24 09:18:43;;;;;;;0.50;0.50;;;;;;;8.29;64.54;102032.89;111543;1192;94572;-76
2021/10/24 09:21:23;;;;;;;0.50;0.50;;;;;;;8.44;64.85;102032.15;111691;1193;137573;-76
2021/10/24 09:24:10;;;;;;;0.60;0.60;;;;;;;8.63;64.39;102035.16;111523;1193;107627;-76
2021/10/24 09:26:40;;;;;;;0.50;0.50;;;;;;;8.57;63.54;102033.88;111599;1193;94727;-77
2021/10/24 09:29:12;;;;;;;0.50;0.50;;;;;;;8.40;64.72;102035.11;111573;1193;138699;-76
2021/10/24 09:31:45;;;;;;;0.50;0.50;;;;;;;8.38;64.65;102037.75;111860;1193;108434;-77
2021/10/24 09:34:24;;;;;;;0.50;0.50;;;;;;;8.35;64.85;102036.48;111571;1193;137894;-77
2021/10/24 09:37:17;;;;;;;0.50;0.50;;;;;;;8.58;64.41;102045.39;111709;1195;94090;-75
2021/10/24 09:40:16;;;;;;;0.50;0.40;;;;;;;9.01;63.75;102048.38;111883;1193;137342;-77
2021/10/24 09:42:45;;;;;;;0.50;0.40;;;;;;;9.20;63.45;102051.86;114733;1192;108656;-76
2021/10/24 09:45:14;;;;;;;0.50;0.50;;;;;;;9.28;62.51;102052.08;111743;1193;108144;-75
2021/10/24 09:47:48;;;;;;;0.50;0.50;;;;;;;9.42;62.07;102053.58;111923;1193;137046;-73
2021/10/24 09:50:37;;;;;;;0.50;0.50;;;;;;;9.33;61.33;102053.34;111518;1193;94134;-74
2021/10/24 09:53:29;;;;;;;0.50;0.50;;;;;;;9.55;62.31;102055.75;111593;1194;138031;-75
2021/10/24 09:56:00;;;;;;;0.50;0.50;;;;;;;9.73;61.04;102054.42;111508;1195;108393;-75
2021/10/24 09:58:33;;;;;;;0.40;0.40;;;;;;;9.60;60.94;102055.44;111632;1192;138151;-75
2021/10/24 10:01:02;;;;;;;0.50;0.50;;;;;;;9.68;61.12;102052.63;111636;1194;94788;-74
2021/10/24 10:03:35;;;;;;;0.50;0.40;;;;;;;9.70;60.89;102053.17;111628;1194;138681;-75
2021/10/24 10:06:05;;;;;;;0.50;0.40;;;;;;;9.64;60.91;102054.39;111525;1193;108016;-75
2021/10/24 10:08:44;;;;;;;0.50;0.40;;;;;;;9.67;61.32;102060.61;111747;1192;94425;-75
2021/10/24 10:11:47;;;;;;;0.50;0.50;;;;;;;9.68;60.65;102060.80;111508;1192;138756;-74
2021/10/24 10:14:23;;;;;;;0.50;0.40;;;;;;;9.52;61.30;102062.14;111712;1194;106991;-76
2021/10/24 10:16:54;;;;;;;0.50;0.40;;;;;;;9.63;60.83;102064.67;111515;1193;137941;-76
2021/10/24 10:19:34;;;;;;;0.50;0.40;;;;;;;9.61;60.60;102068.92;111639;1194;94111;-74
2021/10/24 10:22:21;;;;;;;0.50;0.40;;;;;;;9.50;60.49;102067.27;111777;1192;137688;-75
2021/10/24 10:25:02;;;;;;;0.40;0.40;;;;;;;9.53;61.03;102069.23;111627;1193;107784;-76
2021/10/24 10:27:38;;;;;;;0.50;0.40;;;;;;;9.69;61.06;102066.99;111637;1192;141155;-76
2021/10/24 10:30:32;;;;;;;0.40;0.40;;;;;;;9.64;60.81;102066.28;111813;1193;94529;-76
2021/10/24 10:33:04;;;;;;;0.50;0.50;;;;;;;9.77;60.90;102065.44;111501;1193;94064;-77
2021/10/24 10:35:32;;;;;;;0.50;0.50;;;;;;;9.84;61.15;102069.00;111535;1193;137573;-75
2021/10/24 10:38:04;;;;;;;0.50;0.50;;;;;;;10.05;60.78;102068.02;111696;1193;107723;-77
2021/10/24 10:40:37;;;;;;;0.40;0.40;;;;;;;10.09;59.39;102062.17;111410;1195;139379;-77
2021/10/24 10:43:22;;;;;;;0.40;0.40;;;;;;;10.00;59.71;102069.77;111723;1192;95952;-76
2021/10/24 10:45:56;;;;;;;0.50;0.40;;;;;;;10.00;59.81;102065.16;111951;1192;137402;-74
2021/10/24 10:48:36;;;;;;;0.50;0.40;;;;;;;10.08;60.00;102059.15;111733;1192;107064;-76
2021/10/24 10:51:23;;;;;;;0.50;0.40;;;;;;;10.21;59.76;102062.02;111817;1192;94038;-76
2021/10/24 10:53:55;;;;;;;0.40;0.30;;;;;;;10.30;59.49;102054.75;111738;1192;138819;-74
2021/10/24 10:56:25;;;;;;;0.50;0.40;;;;;;;10.32;59.49;102056.19;111844;1192;108410;-74
2021/10/24 10:58:58;;;;;;;0.50;0.40;;;;;;;10.36;58.67;102054.07;111820;1192;137666;-75
2021/10/24 11:01:30;;;;;;;0.40;0.40;;;;;;;10.27;58.62;102055.46;111839;1192;94944;-74
2021/10/24 11:04:20;;;;;;;0.50;0.40;;;;;;;10.30;59.36;102053.87;111669;1193;137676;-74
2021/10/24 11:06:52;;;;;;;0.40;0.40;;;;;;;10.44;59.05;102050.71;111844;1193;108660;-76
2021/10/24 11:09:41;;;;;;;0.40;0.30;;;;;;;10.53;58.54;102049.30;111821;1192;109901;-75
2021/10/24 11:12:17;;;;;;;0.40;0.40;;;;;;;10.54;58.17;102050.55;111717;1193;139313;-75
2021/10/24 11:14:46;;;;;;;0.40;0.40;;;;;;;10.55;57.92;102047.36;111621;1193;95805;-77
2021/10/24 11:17:34;;;;;;;0.40;0.40;;;;;;;10.55;57.75;102045.05;111631;1193;138623;-76
2021/10/24 11:20:21;;;;;;;0.50;0.40;;;;;;;10.27;57.40;102041.09;111624;1197;110881;-75
2021/10/24 11:23:01;;;;;;;0.50;0.50;;;;;;;10.12;58.53;102044.61;111803;1193;138746;-76
2021/10/24 11:25:49;;;;;;;0.50;0.40;;;;;;;10.19;59.38;102041.95;111793;1192;96817;-76
2021/10/24 11:28:19;;;;;;;0.50;0.40;;;;;;;10.12;58.96;102042.65;111804;1193;137943;-76
2021/10/24 11:30:59;;;;;;;0.40;0.40;;;;;;;10.06;59.10;102040.33;111721;1193;109472;-76
2021/10/24 11:33:52;;;;;;;0.50;0.40;;;;;;;10.07;59.04;102044.23;111571;1192;95316;-77
2021/10/24 11:36:22;;;;;;;0.50;0.50;;;;;;;10.24;59.02;102042.50;111489;1193;137906;-78
2021/10/24 11:39:01;;;;;;;0.50;0.50;;;;;;;10.30;58.74;102041.08;111855;1192;106543;-77
2021/10/24 11:41:29;;;;;;;0.50;0.50;;;;;;;10.23;58.57;102040.02;111721;1194;138413;-77
2021/10/24 11:44:11;;;;;;;0.40;0.40;;;;;;;10.23;58.94;102040.19;111423;1196;94948;-77
2021/10/24 11:46:39;;;;;;;0.40;0.40;;;;;;;10.33;58.92;102039.32;111783;1192;138755;-76